This is the latest recevied weather packets stored in our database for station/object KD7KCN-5. If no packets are shown the sender has not sent any weather packets the latest 10 day(s).
| Time | Temp. | Humidity | Pressure | Rain* | Wind** | Luminosity | Snow |
|---|---|---|---|---|---|---|---|
| 1777192338 | 5° C | 88% | 1003.2 hPa | 3.81 mm | - | 0 W/m² | - |
| 1777191738 | 5° C | 88% | 1003.4 hPa | 2.79 mm | - | 0 W/m² | - |
| 1777191142 | 5.56° C | 87% | 1003.6 hPa | 2.54 mm | - | 0 W/m² | - |
| 1777190538 | 5.56° C | 86% | 1003.9 hPa | 1.78 mm | - | 0 W/m² | - |
| 1777189938 | 6.11° C | 85% | 1004 hPa | 1.27 mm | - | 0 W/m² | - |
| 1777189338 | 6.11° C | 83% | 1003.9 hPa | 0.76 mm | - | 0 W/m² | - |
| 1777188738 | 6.11° C | 82% | 1003.8 hPa | 0.76 mm | - | 0 W/m² | - |
| 1777188138 | 6.11° C | 82% | 1003.9 hPa | 0.76 mm | - | 0 W/m² | - |
| 1777187538 | 6.67° C | 81% | 1003.9 hPa | 0.51 mm | - | 0 W/m² | - |
| 1777186938 | 6.67° C | 80% | 1003.9 hPa | 0.51 mm | - | 0 W/m² | - |
| 1777186338 | 6.67° C | 79% | 1003.8 hPa | 0.25 mm | - | 0 W/m² | - |
| 1777185738 | 6.67° C | 79% | 1003.6 hPa | 0.25 mm | - | 0 W/m² | - |
| 1777185138 | 6.11° C | 83% | 1003.6 hPa | 0 mm | - | 0 W/m² | - |
| 1777184538 | 6.11° C | 84% | 1003.4 hPa | 0.25 mm | - | 0 W/m² | - |
| 1777183939 | 6.11° C | 85% | 1003.2 hPa | 0.76 mm | - | 0 W/m² | - |
| 1777183338 | 6.67° C | 83% | 1003.3 hPa | 0.76 mm | - | 0 W/m² | - |
| 1777182738 | 6.67° C | 80% | 1003.3 hPa | 0.76 mm | - | 0 W/m² | - |
| 1777182139 | 6.67° C | 79% | 1003.5 hPa | 1.02 mm | - | 0 W/m² | - |
| 1777181538 | 7.22° C | 78% | 1004 hPa | 1.02 mm | - | 0 W/m² | - |
| 1777180939 | 7.22° C | 76% | 1004.3 hPa | 0.76 mm | - | 0 W/m² | - |
| 1777180338 | 7.22° C | 75% | 1005.1 hPa | 0.51 mm | - | 0 W/m² | - |
| 1777179738 | 7.78° C | 74% | 1005.1 hPa | 0.25 mm | - | 0 W/m² | - |
| 1777179138 | 7.78° C | 73% | 1005 hPa | 0.25 mm | - | 0 W/m² | - |
| 1777178539 | 8.33° C | 68% | 1005.5 hPa | 0 mm | - | 0 W/m² | - |
| 1777177939 | 8.89° C | 65% | 1005.2 hPa | 0 mm | - | 0 W/m² | - |
* Rain latest hour (hover to see other rain measurements)
** Current wind speed in m/s (hover to see current wind gust speed)